Skip Navigation Links Skip Navigation Links

Current Weather

Palm Springs International, Palm Springs, Calif.

For information only: do not use for flight planning or navigation.
Latest weather
Observation time Tuesday, September 28, 2021 2:53 AM PDT
Local time Tuesday, September 28, 2021 3:49 AM PDT
Flight conditions Visual Meteorological Conditions
Winds
Wind direction West (280°)
Wind speed 9 mph
Visibility 10 mi.
Sky condition
Ceiling unlimited
Sky clear
Temperature 73°F
Dewpoint 55°F
Altimeter 29.80 in.Hg
Derived measurements
Relative humidity 53%
Density altitude 1727 ft.
Sea-level pressure 29.79 in.Hg
Remarks
Fully automated report.
Automated weather observing station with precipitation discriminator.
METAR KPSP 280953Z AUTO 28008KT 10SM CLR 23/13 A2980 RMK AO2 SLP088 T02280128

Settings

Location code

InnerDrive.Weather 4.0.6770.0 Release CLR 4.0.30319.42000
Copyright ©2018 Inner Drive Technology. All rights reserved. Portions Copyright ©1986-2018 David Braverman.

Find weather

Site navigation


Skip Navigation Links

Place info

Page info

PayPal - The safer, easier way to pay online!

Return home.

Copyright ©2021 Inner Drive Technology. Purveyors of fine, hand-crafted computer software. Page printed 2021-09-28T10:49:04 UTC.